createdAt,value
2023-04-18T00:00:12.771Z,101310.95
2023-04-18T00:03:04.847Z,101318.65
2023-04-18T00:05:34.602Z,101322.52
2023-04-18T00:08:05.554Z,101324.71
2023-04-18T00:10:37.310Z,101326.44
2023-04-18T00:13:08.774Z,101330.76
2023-04-18T00:15:38.894Z,101331.70
2023-04-18T00:18:11.068Z,101330.97
2023-04-18T00:20:42.983Z,101330.86
2023-04-18T00:23:15.378Z,101330.42
2023-04-18T00:25:46.238Z,101328.65
2023-04-18T00:28:15.702Z,101325.78
2023-04-18T00:30:47.298Z,101329.16
2023-04-18T00:33:19.698Z,101326.01
2023-04-18T00:35:50.522Z,101323.63
2023-04-18T00:38:20.024Z,101322.67
2023-04-18T00:40:50.633Z,101322.59
2023-04-18T00:43:24.954Z,101320.07
2023-04-18T00:45:54.471Z,101320.21
2023-04-18T00:48:24.885Z,101316.14
2023-04-18T00:50:57.934Z,101309.17
2023-04-18T00:53:29.831Z,101307.02
2023-04-18T00:56:02.528Z,101301.25
2023-04-18T00:58:35.026Z,101301.30
2023-04-18T01:01:11.095Z,101294.02
2023-04-18T01:03:41.700Z,101291.30
2023-04-18T01:06:13.998Z,101291.86
2023-04-18T01:08:45.032Z,101289.96
2023-04-18T01:11:18.505Z,101282.67
2023-04-18T01:14:14.686Z,101282.34
2023-04-18T01:16:47.573Z,101284.72
2023-04-18T01:19:19.798Z,101285.23
2023-04-18T01:21:50.894Z,101288.02
2023-04-18T01:24:20.419Z,101293.41
2023-04-18T01:26:49.934Z,101296.20
2023-04-18T01:29:19.367Z,101294.45
2023-04-18T01:31:53.921Z,101293.25
2023-04-18T01:34:23.816Z,101283.52
2023-04-18T01:36:53.509Z,101284.79
2023-04-18T01:39:23.922Z,101278.45
2023-04-18T01:42:00.132Z,101272.34
2023-04-18T01:44:31.029Z,101274.84
2023-04-18T01:47:00.699Z,101270.53
2023-04-18T01:49:30.115Z,101270.02
2023-04-18T01:52:01.286Z,101265.42
2023-04-18T01:54:33.761Z,101270.92
2023-04-18T01:57:05.974Z,101275.41
2023-04-18T01:59:38.318Z,101282.68
2023-04-18T02:02:08.220Z,101283.46
2023-04-18T02:04:38.330Z,101286.17
2023-04-18T02:07:07.684Z,101286.57
2023-04-18T02:09:38.386Z,101285.63
2023-04-18T02:12:08.002Z,101282.81
2023-04-18T02:14:38.060Z,101279.19
2023-04-18T02:17:11.004Z,101279.93
2023-04-18T02:19:41.332Z,101276.61
2023-04-18T02:22:11.640Z,101277.38
2023-04-18T02:24:41.780Z,101275.86
2023-04-18T02:27:12.102Z,101271.73
2023-04-18T02:29:43.218Z,101266.36
2023-04-18T02:32:12.716Z,101267.10
2023-04-18T02:34:42.460Z,101262.89
2023-04-18T02:37:12.081Z,101262.39
2023-04-18T02:39:43.158Z,101262.14
2023-04-18T02:42:12.609Z,101266.73
2023-04-18T02:44:42.025Z,101274.40
2023-04-18T02:47:11.814Z,101277.36
2023-04-18T02:49:44.309Z,101278.61
2023-04-18T02:52:15.199Z,101276.84
2023-04-18T02:54:46.396Z,101272.66
2023-04-18T02:57:18.822Z,101270.66
2023-04-18T03:00:05.278Z,101269.23
2023-04-18T03:02:53.923Z,101274.05
2023-04-18T03:05:37.500Z,101273.76
2023-04-18T03:08:07.912Z,101273.08
2023-04-18T03:10:39.354Z,101271.84
2023-04-18T03:13:09.303Z,101270.48
2023-04-18T03:15:40.160Z,101272.77
2023-04-18T03:18:12.881Z,101266.92
2023-04-18T03:20:42.821Z,101267.30
2023-04-18T03:23:13.436Z,101263.39
2023-04-18T03:25:42.913Z,101262.92
2023-04-18T03:28:13.866Z,101263.31
2023-04-18T03:30:44.787Z,101269.00
2023-04-18T03:33:17.190Z,101277.65
2023-04-18T03:35:48.573Z,101281.59
2023-04-18T03:38:18.112Z,101283.95
2023-04-18T03:40:50.430Z,101288.02
2023-04-18T03:43:28.413Z,101290.70
2023-04-18T03:45:58.862Z,101290.80
2023-04-18T03:48:29.372Z,101294.73
2023-04-18T03:51:01.718Z,101296.39
2023-04-18T03:53:31.568Z,101292.86
2023-04-18T03:56:01.102Z,101289.19
2023-04-18T03:58:43.583Z,101287.02
2023-04-18T04:01:14.518Z,101285.87
2023-04-18T04:03:44.101Z,101289.27
2023-04-18T04:06:14.277Z,101288.36
2023-04-18T04:08:43.906Z,101291.00
2023-04-18T04:11:13.711Z,101293.66
2023-04-18T04:13:43.656Z,101295.20
2023-04-18T04:16:15.712Z,101297.05
2023-04-18T04:18:45.944Z,101296.11
2023-04-18T04:21:15.940Z,101293.41
2023-04-18T04:23:49.637Z,101295.20
2023-04-18T04:26:43.424Z,101301.93
2023-04-18T04:29:19.423Z,101303.39
2023-04-18T04:31:51.305Z,101307.40
2023-04-18T04:34:28.187Z,101306.34
2023-04-18T04:36:58.021Z,101308.48
2023-04-18T04:39:28.753Z,101305.89
2023-04-18T04:42:54.353Z,101306.33
2023-04-18T04:45:39.752Z,101306.48
2023-04-18T04:48:10.008Z,101309.25
2023-04-18T04:50:42.335Z,101314.88
2023-04-18T04:53:15.158Z,101309.68
2023-04-18T04:55:46.351Z,101311.91
2023-04-18T04:58:16.386Z,101318.52
2023-04-18T05:01:07.868Z,101322.02
2023-04-18T05:03:38.650Z,101325.12
2023-04-18T05:06:09.156Z,101328.30
2023-04-18T05:08:41.073Z,101334.27
2023-04-18T05:11:11.511Z,101332.71
2023-04-18T05:13:40.898Z,101330.67
2023-04-18T05:16:10.930Z,101331.27
2023-04-18T05:18:42.670Z,101335.59
2023-04-18T05:21:12.192Z,101333.73
2023-04-18T05:23:41.637Z,101332.55
2023-04-18T05:26:11.362Z,101337.58
2023-04-18T05:28:42.111Z,101338.11
2023-04-18T05:31:13.995Z,101340.61
2023-04-18T05:33:44.093Z,101345.56
2023-04-18T05:36:13.799Z,101347.23
2023-04-18T05:38:43.356Z,101349.27
2023-04-18T05:41:12.840Z,101351.83
2023-04-18T05:43:48.406Z,101348.16
2023-04-18T05:46:28.955Z,101344.95
2023-04-18T05:48:58.886Z,101347.86
2023-04-18T05:51:28.998Z,101348.01
2023-04-18T05:54:00.895Z,101345.67
2023-04-18T05:56:30.830Z,101347.36
2023-04-18T05:59:01.968Z,101349.12
2023-04-18T06:01:33.529Z,101345.78
2023-04-18T06:04:03.248Z,101344.49
2023-04-18T06:06:36.113Z,101344.34
2023-04-18T06:09:09.009Z,101345.42
2023-04-18T06:11:40.267Z,101341.77
2023-04-18T06:14:12.416Z,101337.66
2023-04-18T06:16:44.806Z,101336.79
2023-04-18T06:19:22.285Z,101338.19
2023-04-18T06:21:53.962Z,101338.60
2023-04-18T06:24:24.788Z,101344.12
2023-04-18T06:26:58.017Z,101343.95
2023-04-18T06:29:30.573Z,101339.66
2023-04-18T06:32:00.247Z,101339.69
2023-04-18T06:34:30.498Z,101335.95
2023-04-18T06:37:04.934Z,101339.54
2023-04-18T06:39:37.916Z,101343.98
2023-04-18T06:42:11.034Z,101344.77
2023-04-18T06:44:52.004Z,101343.34
2023-04-18T06:47:22.895Z,101345.05
2023-04-18T06:49:53.377Z,101343.89
2023-04-18T06:52:25.616Z,101343.00
2023-04-18T06:54:55.067Z,101346.57
2023-04-18T06:57:25.764Z,101351.23
2023-04-18T06:59:56.371Z,101350.16
2023-04-18T07:02:25.924Z,101353.10
2023-04-18T07:04:55.439Z,101356.92
2023-04-18T07:07:26.583Z,101355.59
2023-04-18T07:09:56.035Z,101357.73
2023-04-18T07:12:25.792Z,101358.56
2023-04-18T07:14:55.369Z,101359.86
2023-04-18T07:17:24.904Z,101364.56
2023-04-18T07:19:54.367Z,101365.35
2023-04-18T07:22:24.068Z,101366.27
2023-04-18T07:24:54.249Z,101363.48
2023-04-18T07:27:24.114Z,101363.70
2023-04-18T07:29:53.819Z,101366.67
2023-04-18T07:32:23.982Z,101365.53
2023-04-18T07:34:57.588Z,101358.44
2023-04-18T07:37:27.201Z,101360.04
2023-04-18T07:39:56.763Z,101360.77
2023-04-18T07:42:27.471Z,101358.86
2023-04-18T07:45:01.026Z,101359.77
2023-04-18T07:47:34.734Z,101355.08
2023-04-18T07:50:05.251Z,101355.17
2023-04-18T07:52:50.558Z,101353.00
2023-04-18T07:55:24.332Z,101356.13
2023-04-18T07:57:55.272Z,101355.27
2023-04-18T08:00:26.966Z,101361.08
2023-04-18T08:03:09.955Z,101360.41
2023-04-18T08:05:51.524Z,101365.35
2023-04-18T08:08:23.190Z,101361.98
2023-04-18T08:11:01.106Z,101361.50
2023-04-18T08:13:34.816Z,101361.89
2023-04-18T08:16:04.650Z,101367.21
2023-04-18T08:18:36.218Z,101365.11
2023-04-18T08:21:07.938Z,101361.27
2023-04-18T08:23:49.013Z,101359.63
2023-04-18T08:26:21.322Z,101366.42
2023-04-18T08:28:52.025Z,101368.21
2023-04-18T08:31:22.673Z,101368.30
2023-04-18T08:33:54.613Z,101366.51
2023-04-18T08:36:25.163Z,101365.45
2023-04-18T08:38:56.663Z,101364.83
2023-04-18T08:41:27.387Z,101361.29
2023-04-18T08:43:57.209Z,101361.02
2023-04-18T08:46:27.304Z,101358.17
2023-04-18T08:48:59.853Z,101359.55
2023-04-18T08:51:40.472Z,101358.50
2023-04-18T08:54:10.807Z,101354.81
2023-04-18T08:56:41.203Z,101353.88
2023-04-18T08:59:11.840Z,101356.63
2023-04-18T09:01:59.695Z,101353.09
2023-04-18T09:04:49.552Z,101353.80
2023-04-18T09:07:29.153Z,101350.70
2023-04-18T09:09:58.920Z,101354.21
2023-04-18T09:12:34.082Z,101346.59
2023-04-18T09:15:15.673Z,101349.39
2023-04-18T09:17:51.097Z,101349.90
2023-04-18T09:20:38.290Z,101348.23
2023-04-18T09:23:21.907Z,101348.79
2023-04-18T09:25:52.591Z,101346.71
2023-04-18T09:28:31.370Z,101353.59
2023-04-18T09:31:15.758Z,101353.71
2023-04-18T09:33:57.529Z,101355.71
2023-04-18T09:36:28.105Z,101349.54
2023-04-18T09:38:57.805Z,101349.29
2023-04-18T09:41:27.771Z,101343.91
2023-04-18T09:44:14.917Z,101341.15
2023-04-18T09:46:50.365Z,101348.04
2023-04-18T09:49:21.650Z,101348.98
2023-04-18T09:51:55.093Z,101347.91
2023-04-18T09:54:26.244Z,101348.29
2023-04-18T09:56:58.178Z,101347.02
2023-04-18T09:59:55.368Z,101345.42
2023-04-18T10:02:29.676Z,101348.54
2023-04-18T10:05:09.799Z,101342.39
2023-04-18T10:07:45.868Z,101345.20
2023-04-18T10:10:17.232Z,101345.21
2023-04-18T10:12:54.423Z,101349.38
2023-04-18T10:15:27.842Z,101353.39
2023-04-18T10:18:05.864Z,101352.16
2023-04-18T10:20:36.558Z,101351.73
2023-04-18T10:23:41.060Z,101348.54
2023-04-18T10:26:11.965Z,101345.81
2023-04-18T10:29:01.730Z,101343.13
2023-04-18T10:31:41.576Z,101341.14
2023-04-18T10:34:20.061Z,101334.86
2023-04-18T10:37:07.509Z,101332.70
2023-04-18T10:40:07.573Z,101330.40
2023-04-18T10:42:52.286Z,101324.84
2023-04-18T10:45:26.145Z,101326.29
2023-04-18T10:48:27.988Z,101329.45
2023-04-18T10:51:23.849Z,101326.95
2023-04-18T10:53:59.593Z,101326.89
2023-04-18T10:56:30.355Z,101326.90
2023-04-18T10:59:06.063Z,101326.05
2023-04-18T11:01:39.814Z,101323.04
2023-04-18T11:04:15.889Z,101321.80
2023-04-18T11:06:58.466Z,101318.12
2023-04-18T11:09:28.133Z,101318.55
2023-04-18T11:12:10.994Z,101318.30
2023-04-18T11:14:44.271Z,101316.34
2023-04-18T11:17:36.058Z,101317.66
2023-04-18T11:20:15.270Z,101321.73
2023-04-18T11:22:54.011Z,101320.88
2023-04-18T11:25:37.013Z,101317.50
2023-04-18T11:28:06.505Z,101313.11
2023-04-18T11:30:42.131Z,101318.17
2023-04-18T11:33:14.082Z,101320.09
2023-04-18T11:35:49.337Z,101320.40
2023-04-18T11:38:22.217Z,101317.84
2023-04-18T11:40:54.973Z,101320.45
2023-04-18T11:43:25.906Z,101316.79
2023-04-18T11:45:58.181Z,101308.58
2023-04-18T11:48:45.638Z,101302.17
2023-04-18T11:51:37.054Z,101301.70
2023-04-18T11:54:06.806Z,101297.42
2023-04-18T11:56:36.935Z,101293.24
2023-04-18T11:59:10.098Z,101293.54
2023-04-18T12:01:39.816Z,101288.95
2023-04-18T12:04:09.937Z,101291.45
2023-04-18T12:06:54.114Z,101288.92
2023-04-18T12:09:27.825Z,101293.01
2023-04-18T12:12:04.295Z,101293.04
2023-04-18T12:14:36.105Z,101294.29
2023-04-18T12:17:05.940Z,101290.81
2023-04-18T12:19:35.654Z,101289.65
2023-04-18T12:22:10.169Z,101285.86
2023-04-18T12:24:39.594Z,101282.23
2023-04-18T12:27:09.376Z,101277.79
2023-04-18T12:29:39.975Z,101272.42
2023-04-18T12:32:11.216Z,101274.43
2023-04-18T12:34:40.879Z,101276.56
2023-04-18T12:37:10.410Z,101271.26
2023-04-18T12:39:39.928Z,101269.55
2023-04-18T12:42:09.528Z,101270.38
2023-04-18T12:44:40.392Z,101271.73
2023-04-18T12:47:15.641Z,101270.05
2023-04-18T12:49:45.755Z,101267.78
2023-04-18T12:52:16.738Z,101267.61
2023-04-18T12:54:47.302Z,101264.67
2023-04-18T12:57:18.256Z,101266.92
2023-04-18T12:59:48.073Z,101265.25
2023-04-18T13:02:20.899Z,101259.32
2023-04-18T13:04:56.272Z,101257.16
2023-04-18T13:07:28.581Z,101253.52
2023-04-18T13:09:59.311Z,101254.05
2023-04-18T13:12:33.319Z,101255.39
2023-04-18T13:15:03.925Z,101252.20
2023-04-18T13:17:41.818Z,101253.58
2023-04-18T13:20:14.152Z,101249.88
2023-04-18T13:22:49.687Z,101245.86
2023-04-18T13:25:20.223Z,101243.63
2023-04-18T13:27:51.112Z,101236.51
2023-04-18T13:30:21.330Z,101235.61
2023-04-18T13:32:51.900Z,101232.70
2023-04-18T13:35:22.208Z,101230.11
2023-04-18T13:37:51.749Z,101232.20
2023-04-18T13:40:21.741Z,101229.73
2023-04-18T13:42:51.744Z,101228.29
2023-04-18T13:45:21.384Z,101227.90
2023-04-18T13:47:51.053Z,101230.88
2023-04-18T13:50:20.852Z,101227.27
2023-04-18T13:52:52.190Z,101222.88
2023-04-18T13:55:21.952Z,101224.00
2023-04-18T13:57:56.692Z,101222.25
2023-04-18T14:00:27.069Z,101227.13
2023-04-18T14:02:57.813Z,101224.90
2023-04-18T14:05:27.606Z,101226.79
2023-04-18T14:08:02.503Z,101231.43
2023-04-18T14:10:32.085Z,101227.65
2023-04-18T14:13:03.026Z,101226.15
2023-04-18T14:15:34.014Z,101228.38
2023-04-18T14:18:03.682Z,101229.42
2023-04-18T14:20:37.598Z,101227.57
2023-04-18T14:23:07.480Z,101231.13
2023-04-18T14:25:38.549Z,101226.13
2023-04-18T14:28:11.183Z,101229.73
2023-04-18T14:30:40.934Z,101224.51
2023-04-18T14:33:10.467Z,101224.91
2023-04-18T14:35:40.543Z,101223.08
2023-04-18T14:38:11.715Z,101214.33
2023-04-18T14:40:42.183Z,101209.85
2023-04-18T14:43:12.174Z,101209.90
2023-04-18T14:45:41.630Z,101212.73
2023-04-18T14:48:11.060Z,101214.94
2023-04-18T14:50:40.970Z,101219.77
2023-04-18T14:53:14.543Z,101221.09
2023-04-18T14:55:47.614Z,101221.70
2023-04-18T14:58:17.237Z,101226.85
2023-04-18T15:00:46.802Z,101226.76
2023-04-18T15:03:19.569Z,101225.98
2023-04-18T15:05:49.517Z,101224.89
2023-04-18T15:08:19.109Z,101223.67
2023-04-18T15:10:48.919Z,101225.89
2023-04-18T15:13:21.362Z,101226.27
2023-04-18T15:15:56.807Z,101230.88
2023-04-18T15:18:28.085Z,101229.47
2023-04-18T15:21:02.728Z,101231.21
2023-04-18T15:23:33.473Z,101231.27
2023-04-18T15:26:05.126Z,101228.39
2023-04-18T15:28:36.655Z,101226.33
2023-04-18T15:31:08.013Z,101227.09
2023-04-18T15:33:38.378Z,101222.27
2023-04-18T15:36:09.668Z,101224.16
2023-04-18T15:38:40.215Z,101222.46
2023-04-18T15:41:09.727Z,101221.20
2023-04-18T15:43:42.025Z,101222.77
2023-04-18T15:46:16.515Z,101220.70
2023-04-18T15:48:50.041Z,101221.83
2023-04-18T15:51:31.041Z,101223.55
2023-04-18T15:54:01.402Z,101229.56
2023-04-18T15:56:33.151Z,101233.83
2023-04-18T15:59:08.490Z,101235.08
2023-04-18T16:01:37.931Z,101237.14
2023-04-18T16:04:08.387Z,101240.98
2023-04-18T16:06:40.407Z,101239.48
2023-04-18T16:09:10.648Z,101234.95
2023-04-18T16:11:44.051Z,101232.67
2023-04-18T16:14:15.159Z,101231.70
2023-04-18T16:16:44.817Z,101227.21
2023-04-18T16:19:17.174Z,101223.47
2023-04-18T16:21:49.382Z,101221.60
2023-04-18T16:24:21.118Z,101216.33
2023-04-18T16:26:53.356Z,101215.96
2023-04-18T16:29:24.003Z,101210.49
2023-04-18T16:31:54.286Z,101202.25
2023-04-18T16:34:24.088Z,101195.61
2023-04-18T16:36:55.073Z,101188.71
2023-04-18T16:39:28.237Z,101174.65
2023-04-18T16:42:07.923Z,101157.30
2023-04-18T16:45:04.698Z,101136.64
2023-04-18T16:47:36.466Z,101117.71
2023-04-18T16:50:08.232Z,101098.77
2023-04-18T16:52:39.072Z,101091.98
2023-04-18T16:55:11.547Z,101091.29
2023-04-18T16:57:42.619Z,101090.88
2023-04-18T17:00:16.685Z,101092.56
2023-04-18T17:02:47.415Z,101095.74
2023-04-18T17:05:17.759Z,101100.48
2023-04-18T17:07:49.922Z,101100.52
2023-04-18T17:10:19.797Z,101108.78
2023-04-18T17:12:49.563Z,101120.38
2023-04-18T17:15:22.056Z,101139.44
2023-04-18T17:17:52.528Z,101154.21
2023-04-18T17:20:23.766Z,101157.84
2023-04-18T17:22:57.635Z,101168.25
2023-04-18T17:25:28.076Z,101179.79
2023-04-18T17:27:57.618Z,101185.06
2023-04-18T17:30:27.153Z,101191.27
2023-04-18T17:32:56.678Z,101195.61
2023-04-18T17:35:26.049Z,101200.34
2023-04-18T17:37:56.734Z,101202.96
2023-04-18T17:40:26.397Z,101205.44
2023-04-18T17:42:55.786Z,101210.16
2023-04-18T17:45:25.237Z,101215.48
2023-04-18T17:47:57.706Z,101221.59
2023-04-18T17:50:27.254Z,101225.69
2023-04-18T17:52:58.335Z,101232.41
2023-04-18T17:55:29.858Z,101230.34
2023-04-18T17:58:00.199Z,101231.87
2023-04-18T18:00:30.797Z,101237.02
2023-04-18T18:03:01.942Z,101245.77
2023-04-18T18:05:31.782Z,101245.42
2023-04-18T18:08:01.187Z,101252.40
2023-04-18T18:10:34.117Z,101250.20
2023-04-18T18:13:04.028Z,101256.77
2023-04-18T18:15:34.778Z,101258.19
2023-04-18T18:18:04.383Z,101256.99
2023-04-18T18:20:36.637Z,101258.29
2023-04-18T18:23:06.967Z,101261.42
2023-04-18T18:25:41.740Z,101265.84
2023-04-18T18:28:12.150Z,101266.05
2023-04-18T18:30:42.501Z,101265.46
2023-04-18T18:33:11.900Z,101269.91
2023-04-18T18:35:42.543Z,101270.67
2023-04-18T18:38:13.259Z,101276.39
2023-04-18T18:40:42.724Z,101273.79
2023-04-18T18:43:13.350Z,101280.02
2023-04-18T18:45:44.341Z,101278.64
2023-04-18T18:48:15.061Z,101279.32
2023-04-18T18:50:50.488Z,101275.97
2023-04-18T18:53:23.738Z,101277.66
2023-04-18T18:55:56.660Z,101278.04
2023-04-18T18:58:26.221Z,101280.36
2023-04-18T19:00:56.398Z,101279.15
2023-04-18T19:03:26.174Z,101282.35
2023-04-18T19:06:04.043Z,101285.11
2023-04-18T19:08:34.269Z,101283.09
2023-04-18T19:11:04.601Z,101286.67
2023-04-18T19:13:37.219Z,101294.21
2023-04-18T19:16:07.580Z,101296.46
2023-04-18T19:18:41.589Z,101298.70
2023-04-18T19:21:12.309Z,101295.91
2023-04-18T19:23:42.331Z,101292.75
2023-04-18T19:26:12.101Z,101290.16
2023-04-18T19:28:41.634Z,101287.82
2023-04-18T19:31:11.094Z,101288.35
2023-04-18T19:33:41.585Z,101286.07
2023-04-18T19:36:11.099Z,101285.39
2023-04-18T19:38:43.393Z,101283.58
2023-04-18T19:41:12.874Z,101281.56
2023-04-18T19:43:43.851Z,101282.29
2023-04-18T19:46:13.525Z,101276.77
2023-04-18T19:48:45.677Z,101278.68
2023-04-18T19:51:15.435Z,101279.97
2023-04-18T19:53:44.939Z,101278.61
2023-04-18T19:56:15.124Z,101275.64
2023-04-18T19:58:49.027Z,101275.27
2023-04-18T20:01:20.326Z,101278.11
2023-04-18T20:03:50.422Z,101273.44
2023-04-18T20:06:24.810Z,101274.04
2023-04-18T20:08:55.535Z,101275.67
2023-04-18T20:11:25.384Z,101273.26
2023-04-18T20:13:56.189Z,101267.04
2023-04-18T20:16:25.776Z,101265.30
2023-04-18T20:18:55.281Z,101265.59
2023-04-18T20:21:27.023Z,101261.22
2023-04-18T20:23:58.211Z,101256.80
2023-04-18T20:26:28.843Z,101250.19
2023-04-18T20:28:58.409Z,101252.18
2023-04-18T20:31:27.973Z,101248.38
2023-04-18T20:33:59.429Z,101243.24
2023-04-18T20:36:31.249Z,101239.72
2023-04-18T20:39:02.509Z,101232.48
2023-04-18T20:41:32.725Z,101231.91
2023-04-18T20:44:05.535Z,101230.48
2023-04-18T20:46:36.538Z,101233.94
2023-04-18T20:49:10.305Z,101233.98
2023-04-18T20:51:41.428Z,101236.56
2023-04-18T20:54:11.189Z,101237.29
2023-04-18T20:56:40.570Z,101232.09
2023-04-18T20:59:10.926Z,101232.13
2023-04-18T21:01:41.414Z,101224.88
2023-04-18T21:04:11.033Z,101223.17
2023-04-18T21:06:40.788Z,101218.20
2023-04-18T21:09:10.569Z,101217.38
2023-04-18T21:11:41.283Z,101212.50
2023-04-18T21:14:10.965Z,101213.12
2023-04-18T21:16:42.023Z,101212.10
2023-04-18T21:19:11.667Z,101208.16
2023-04-18T21:21:42.669Z,101212.91
2023-04-18T21:24:13.010Z,101205.83
2023-04-18T21:26:45.781Z,101208.33
2023-04-18T21:29:17.218Z,101206.27
2023-04-18T21:31:49.138Z,101214.52
2023-04-18T21:34:18.797Z,101216.09
2023-04-18T21:36:48.408Z,101216.77
2023-04-18T21:39:17.917Z,101216.61
2023-04-18T21:41:48.433Z,101217.19
2023-04-18T21:44:19.024Z,101222.97
2023-04-18T21:46:48.624Z,101221.38
2023-04-18T21:49:20.501Z,101221.88
2023-04-18T21:51:50.220Z,101218.45
2023-04-18T21:54:21.262Z,101215.70
2023-04-18T21:56:50.553Z,101211.70
2023-04-18T21:59:21.255Z,101210.13
2023-04-18T22:01:52.215Z,101212.35
2023-04-18T22:04:26.204Z,101212.36
2023-04-18T22:06:57.702Z,101209.42
2023-04-18T22:09:27.114Z,101211.13
2023-04-18T22:11:57.077Z,101215.15
2023-04-18T22:14:28.373Z,101219.36
2023-04-18T22:16:59.051Z,101222.08
2023-04-18T22:19:29.629Z,101221.44
2023-04-18T22:22:00.166Z,101217.80
2023-04-18T22:24:29.597Z,101213.89
2023-04-18T22:26:59.566Z,101213.40
2023-04-18T22:29:29.269Z,101213.17
2023-04-18T22:31:59.141Z,101209.29
2023-04-18T22:34:31.073Z,101205.38
2023-04-18T22:37:10.479Z,101204.38
2023-04-18T22:39:42.053Z,101201.08
2023-04-18T22:42:11.510Z,101199.70
2023-04-18T22:44:41.026Z,101200.17
2023-04-18T22:47:10.412Z,101189.13
2023-04-18T22:49:40.663Z,101191.25
2023-04-18T22:52:10.217Z,101186.71
2023-04-18T22:54:40.302Z,101186.38
2023-04-18T22:57:09.757Z,101188.13
2023-04-18T22:59:39.873Z,101187.54
2023-04-18T23:02:10.773Z,101184.13
2023-04-18T23:04:42.559Z,101187.28
2023-04-18T23:07:12.270Z,101180.11
2023-04-18T23:09:42.030Z,101179.67
2023-04-18T23:12:12.807Z,101177.72
2023-04-18T23:14:42.373Z,101176.63
2023-04-18T23:17:12.959Z,101175.33
2023-04-18T23:19:45.259Z,101176.27
2023-04-18T23:22:14.623Z,101174.98
2023-04-18T23:24:45.368Z,101176.22
2023-04-18T23:27:15.705Z,101173.16
2023-04-18T23:29:49.001Z,101176.02
2023-04-18T23:32:18.278Z,101166.86
2023-04-18T23:34:47.733Z,101163.43
2023-04-18T23:37:17.922Z,101156.00
2023-04-18T23:39:48.064Z,101150.43
2023-04-18T23:42:17.809Z,101146.08
2023-04-18T23:44:47.170Z,101138.64
2023-04-18T23:47:16.617Z,101135.05
2023-04-18T23:49:46.094Z,101135.73
2023-04-18T23:52:15.580Z,101134.02
2023-04-18T23:54:45.879Z,101135.95
2023-04-18T23:57:15.653Z,101132.02
2023-04-18T23:59:45.085Z,101130.67
